sensor_id;sensor_type;location;lat;lon;timestamp;P1;durP1;ratioP1;P2;durP2;ratioP2
25497;SDS011;13406;53.380;7.226;2022-10-16T00:01:14;4.67;;;1.27;;
25497;SDS011;13406;53.380;7.226;2022-10-16T00:03:42;6.17;;;1.83;;
25497;SDS011;13406;53.380;7.226;2022-10-16T00:06:09;4.00;;;1.53;;
25497;SDS011;13406;53.380;7.226;2022-10-16T00:08:35;3.67;;;1.60;;
25497;SDS011;13406;53.380;7.226;2022-10-16T00:11:06;4.33;;;1.23;;
25497;SDS011;13406;53.380;7.226;2022-10-16T00:13:32;5.10;;;1.40;;
25497;SDS011;13406;53.380;7.226;2022-10-16T00:15:59;7.10;;;1.70;;
25497;SDS011;13406;53.380;7.226;2022-10-16T00:18:25;2.87;;;1.30;;
25497;SDS011;13406;53.380;7.226;2022-10-16T00:20:52;3.10;;;1.20;;
25497;SDS011;13406;53.380;7.226;2022-10-16T00:23:17;6.83;;;2.17;;
25497;SDS011;13406;53.380;7.226;2022-10-16T00:25:43;7.27;;;1.50;;
25497;SDS011;13406;53.380;7.226;2022-10-16T00:28:09;3.63;;;1.60;;
25497;SDS011;13406;53.380;7.226;2022-10-16T00:30:37;6.87;;;1.57;;
25497;SDS011;13406;53.380;7.226;2022-10-16T00:33:03;3.10;;;1.23;;
25497;SDS011;13406;53.380;7.226;2022-10-16T00:35:29;3.60;;;1.83;;
25497;SDS011;13406;53.380;7.226;2022-10-16T00:37:55;3.37;;;1.50;;
25497;SDS011;13406;53.380;7.226;2022-10-16T00:40:21;6.00;;;1.50;;
25497;SDS011;13406;53.380;7.226;2022-10-16T00:42:46;6.30;;;1.50;;
25497;SDS011;13406;53.380;7.226;2022-10-16T00:45:11;6.27;;;1.60;;
25497;SDS011;13406;53.380;7.226;2022-10-16T00:47:39;5.83;;;1.80;;
25497;SDS011;13406;53.380;7.226;2022-10-16T00:50:22;4.20;;;1.40;;
25497;SDS011;13406;53.380;7.226;2022-10-16T00:52:52;4.83;;;1.70;;
25497;SDS011;13406;53.380;7.226;2022-10-16T00:55:17;6.57;;;1.63;;
25497;SDS011;13406;53.380;7.226;2022-10-16T00:57:43;4.90;;;1.20;;
25497;SDS011;13406;53.380;7.226;2022-10-16T01:00:10;5.63;;;1.63;;
25497;SDS011;13406;53.380;7.226;2022-10-16T01:02:38;9.00;;;2.27;;
25497;SDS011;13406;53.380;7.226;2022-10-16T01:05:04;3.47;;;1.50;;
25497;SDS011;13406;53.380;7.226;2022-10-16T01:07:34;7.70;;;1.63;;
25497;SDS011;13406;53.380;7.226;2022-10-16T01:13:13;5.00;;;1.37;;
25497;SDS011;13406;53.380;7.226;2022-10-16T01:21:05;5.40;;;1.83;;
25497;SDS011;13406;53.380;7.226;2022-10-16T01:29:29;3.37;;;1.50;;
25497;SDS011;13406;53.380;7.226;2022-10-16T01:32:10;4.47;;;1.77;;
25497;SDS011;13406;53.380;7.226;2022-10-16T01:34:44;6.90;;;1.87;;
25497;SDS011;13406;53.380;7.226;2022-10-16T01:37:20;5.00;;;1.47;;
25497;SDS011;13406;53.380;7.226;2022-10-16T01:39:58;3.63;;;1.70;;
25497;SDS011;13406;53.380;7.226;2022-10-16T01:42:29;5.93;;;1.63;;
25497;SDS011;13406;53.380;7.226;2022-10-16T01:45:00;3.63;;;1.30;;
25497;SDS011;13406;53.380;7.226;2022-10-16T01:47:27;6.17;;;1.90;;
25497;SDS011;13406;53.380;7.226;2022-10-16T01:49:55;5.50;;;1.93;;
25497;SDS011;13406;53.380;7.226;2022-10-16T01:52:23;5.27;;;1.70;;
25497;SDS011;13406;53.380;7.226;2022-10-16T01:54:52;4.80;;;1.60;;
25497;SDS011;13406;53.380;7.226;2022-10-16T01:57:20;3.90;;;1.50;;
25497;SDS011;13406;53.380;7.226;2022-10-16T01:59:47;4.20;;;1.67;;
25497;SDS011;13406;53.380;7.226;2022-10-16T02:02:17;5.43;;;2.33;;
25497;SDS011;13406;53.380;7.226;2022-10-16T02:07:24;4.93;;;1.90;;
25497;SDS011;13406;53.380;7.226;2022-10-16T02:09:49;5.00;;;1.60;;
25497;SDS011;13406;53.380;7.226;2022-10-16T02:12:19;4.07;;;1.50;;
25497;SDS011;13406;53.380;7.226;2022-10-16T02:14:51;3.70;;;1.63;;
25497;SDS011;13406;53.380;7.226;2022-10-16T02:17:17;7.67;;;1.97;;
25497;SDS011;13406;53.380;7.226;2022-10-16T02:19:43;5.90;;;1.83;;
25497;SDS011;13406;53.380;7.226;2022-10-16T02:22:22;4.77;;;1.40;;
25497;SDS011;13406;53.380;7.226;2022-10-16T02:25:22;4.90;;;1.57;;
25497;SDS011;13406;53.380;7.226;2022-10-16T02:30:29;9.40;;;1.83;;
25497;SDS011;13406;53.380;7.226;2022-10-16T02:32:59;6.43;;;1.70;;
25497;SDS011;13406;53.380;7.226;2022-10-16T02:35:26;5.30;;;2.10;;
25497;SDS011;13406;53.380;7.226;2022-10-16T02:37:52;5.10;;;1.50;;
25497;SDS011;13406;53.380;7.226;2022-10-16T02:40:19;3.70;;;1.40;;
25497;SDS011;13406;53.380;7.226;2022-10-16T02:42:49;2.97;;;1.23;;
25497;SDS011;13406;53.380;7.226;2022-10-16T02:45:15;8.33;;;1.50;;
25497;SDS011;13406;53.380;7.226;2022-10-16T02:47:41;6.20;;;2.13;;
25497;SDS011;13406;53.380;7.226;2022-10-16T02:50:07;4.67;;;1.80;;
25497;SDS011;13406;53.380;7.226;2022-10-16T02:52:32;5.60;;;1.57;;
25497;SDS011;13406;53.380;7.226;2022-10-16T02:54:58;5.23;;;1.80;;
25497;SDS011;13406;53.380;7.226;2022-10-16T02:57:23;2.67;;;1.27;;
25497;SDS011;13406;53.380;7.226;2022-10-16T02:59:49;3.70;;;2.20;;
25497;SDS011;13406;53.380;7.226;2022-10-16T03:02:14;4.30;;;1.40;;
25497;SDS011;13406;53.380;7.226;2022-10-16T03:04:40;6.50;;;1.53;;
25497;SDS011;13406;53.380;7.226;2022-10-16T03:07:05;5.67;;;1.53;;
25497;SDS011;13406;53.380;7.226;2022-10-16T03:09:30;3.93;;;1.50;;
25497;SDS011;13406;53.380;7.226;2022-10-16T03:11:56;5.77;;;1.87;;
25497;SDS011;13406;53.380;7.226;2022-10-16T03:14:21;2.50;;;1.40;;
25497;SDS011;13406;53.380;7.226;2022-10-16T03:16:47;3.60;;;1.47;;
25497;SDS011;13406;53.380;7.226;2022-10-16T03:19:12;3.10;;;1.70;;
25497;SDS011;13406;53.380;7.226;2022-10-16T03:21:37;4.37;;;1.60;;
25497;SDS011;13406;53.380;7.226;2022-10-16T03:24:03;3.90;;;1.83;;
25497;SDS011;13406;53.380;7.226;2022-10-16T03:26:28;7.20;;;2.00;;
25497;SDS011;13406;53.380;7.226;2022-10-16T03:28:54;3.87;;;2.10;;
25497;SDS011;13406;53.380;7.226;2022-10-16T03:31:19;7.97;;;2.00;;
25497;SDS011;13406;53.380;7.226;2022-10-16T03:33:45;3.63;;;1.43;;
25497;SDS011;13406;53.380;7.226;2022-10-16T03:36:10;6.40;;;2.03;;
25497;SDS011;13406;53.380;7.226;2022-10-16T03:38:35;4.33;;;1.60;;
25497;SDS011;13406;53.380;7.226;2022-10-16T03:41:01;2.60;;;1.30;;
25497;SDS011;13406;53.380;7.226;2022-10-16T03:43:26;2.47;;;1.13;;
25497;SDS011;13406;53.380;7.226;2022-10-16T03:45:52;3.23;;;1.97;;
25497;SDS011;13406;53.380;7.226;2022-10-16T03:48:18;3.50;;;1.50;;
25497;SDS011;13406;53.380;7.226;2022-10-16T03:50:43;3.13;;;1.87;;
25497;SDS011;13406;53.380;7.226;2022-10-16T03:53:09;3.20;;;1.60;;
25497;SDS011;13406;53.380;7.226;2022-10-16T03:55:34;4.07;;;1.70;;
25497;SDS011;13406;53.380;7.226;2022-10-16T03:58:00;4.80;;;1.63;;
25497;SDS011;13406;53.380;7.226;2022-10-16T04:00:25;2.40;;;1.67;;
25497;SDS011;13406;53.380;7.226;2022-10-16T04:02:51;3.90;;;1.87;;
25497;SDS011;13406;53.380;7.226;2022-10-16T04:05:17;3.80;;;1.70;;
25497;SDS011;13406;53.380;7.226;2022-10-16T04:07:42;4.10;;;1.77;;
25497;SDS011;13406;53.380;7.226;2022-10-16T04:10:08;4.10;;;1.27;;
25497;SDS011;13406;53.380;7.226;2022-10-16T04:12:33;4.13;;;2.13;;
25497;SDS011;13406;53.380;7.226;2022-10-16T04:14:58;8.03;;;2.07;;
25497;SDS011;13406;53.380;7.226;2022-10-16T04:17:24;4.93;;;1.77;;
25497;SDS011;13406;53.380;7.226;2022-10-16T04:19:49;10.60;;;1.70;;
25497;SDS011;13406;53.380;7.226;2022-10-16T04:22:15;3.03;;;1.60;;
25497;SDS011;13406;53.380;7.226;2022-10-16T04:24:40;4.40;;;2.20;;
25497;SDS011;13406;53.380;7.226;2022-10-16T04:27:05;4.47;;;2.73;;
25497;SDS011;13406;53.380;7.226;2022-10-16T04:29:31;2.53;;;1.50;;
25497;SDS011;13406;53.380;7.226;2022-10-16T04:31:56;7.60;;;1.60;;
25497;SDS011;13406;53.380;7.226;2022-10-16T04:34:21;2.40;;;1.30;;
25497;SDS011;13406;53.380;7.226;2022-10-16T04:36:47;2.90;;;1.27;;
25497;SDS011;13406;53.380;7.226;2022-10-16T04:39:14;3.40;;;1.67;;
25497;SDS011;13406;53.380;7.226;2022-10-16T04:41:40;5.10;;;2.27;;
25497;SDS011;13406;53.380;7.226;2022-10-16T04:44:05;4.57;;;1.87;;
25497;SDS011;13406;53.380;7.226;2022-10-16T04:46:31;5.57;;;2.80;;
25497;SDS011;13406;53.380;7.226;2022-10-16T04:48:56;4.83;;;2.20;;
25497;SDS011;13406;53.380;7.226;2022-10-16T04:51:21;4.60;;;2.37;;
25497;SDS011;13406;53.380;7.226;2022-10-16T04:53:48;8.20;;;1.73;;
25497;SDS011;13406;53.380;7.226;2022-10-16T04:56:13;2.93;;;1.87;;
25497;SDS011;13406;53.380;7.226;2022-10-16T04:58:40;4.83;;;1.60;;
25497;SDS011;13406;53.380;7.226;2022-10-16T05:01:05;5.43;;;1.70;;
25497;SDS011;13406;53.380;7.226;2022-10-16T05:03:30;3.20;;;1.60;;
25497;SDS011;13406;53.380;7.226;2022-10-16T05:05:56;5.53;;;2.00;;
25497;SDS011;13406;53.380;7.226;2022-10-16T05:08:21;3.70;;;1.60;;
25497;SDS011;13406;53.380;7.226;2022-10-16T05:10:47;4.50;;;1.60;;
25497;SDS011;13406;53.380;7.226;2022-10-16T05:13:12;3.47;;;2.40;;
25497;SDS011;13406;53.380;7.226;2022-10-16T05:15:37;3.77;;;2.00;;
25497;SDS011;13406;53.380;7.226;2022-10-16T05:18:03;2.83;;;1.53;;
25497;SDS011;13406;53.380;7.226;2022-10-16T05:20:28;6.90;;;1.57;;
25497;SDS011;13406;53.380;7.226;2022-10-16T05:22:54;5.13;;;3.53;;
25497;SDS011;13406;53.380;7.226;2022-10-16T05:25:19;2.70;;;2.33;;
25497;SDS011;13406;53.380;7.226;2022-10-16T05:27:48;4.07;;;1.90;;
25497;SDS011;13406;53.380;7.226;2022-10-16T05:30:14;3.97;;;1.47;;
25497;SDS011;13406;53.380;7.226;2022-10-16T05:32:40;4.80;;;1.53;;
25497;SDS011;13406;53.380;7.226;2022-10-16T05:35:06;4.07;;;1.30;;
25497;SDS011;13406;53.380;7.226;2022-10-16T05:37:31;6.20;;;1.50;;
25497;SDS011;13406;53.380;7.226;2022-10-16T05:39:58;2.90;;;1.60;;
25497;SDS011;13406;53.380;7.226;2022-10-16T05:42:23;7.93;;;2.10;;
25497;SDS011;13406;53.380;7.226;2022-10-16T05:44:49;2.63;;;1.50;;
25497;SDS011;13406;53.380;7.226;2022-10-16T05:47:14;3.20;;;1.33;;
25497;SDS011;13406;53.380;7.226;2022-10-16T05:49:39;6.90;;;2.37;;
25497;SDS011;13406;53.380;7.226;2022-10-16T05:52:05;6.17;;;2.30;;
25497;SDS011;13406;53.380;7.226;2022-10-16T05:54:30;8.70;;;2.33;;
25497;SDS011;13406;53.380;7.226;2022-10-16T05:56:56;3.20;;;1.63;;
25497;SDS011;13406;53.380;7.226;2022-10-16T05:59:21;3.90;;;1.70;;
25497;SDS011;13406;53.380;7.226;2022-10-16T06:01:46;3.23;;;1.90;;
25497;SDS011;13406;53.380;7.226;2022-10-16T06:04:12;6.33;;;1.90;;
25497;SDS011;13406;53.380;7.226;2022-10-16T06:06:37;5.13;;;1.70;;
25497;SDS011;13406;53.380;7.226;2022-10-16T06:09:03;6.13;;;1.90;;
25497;SDS011;13406;53.380;7.226;2022-10-16T06:11:29;2.87;;;1.40;;
25497;SDS011;13406;53.380;7.226;2022-10-16T06:13:57;4.27;;;1.43;;
25497;SDS011;13406;53.380;7.226;2022-10-16T06:16:26;6.30;;;2.00;;
25497;SDS011;13406;53.380;7.226;2022-10-16T06:18:52;2.83;;;1.80;;
25497;SDS011;13406;53.380;7.226;2022-10-16T06:21:20;3.13;;;1.83;;
25497;SDS011;13406;53.380;7.226;2022-10-16T06:23:47;8.30;;;2.07;;
25497;SDS011;13406;53.380;7.226;2022-10-16T06:26:13;4.37;;;1.83;;
25497;SDS011;13406;53.380;7.226;2022-10-16T06:28:40;6.53;;;1.90;;
25497;SDS011;13406;53.380;7.226;2022-10-16T06:31:09;6.30;;;2.00;;
25497;SDS011;13406;53.380;7.226;2022-10-16T06:33:36;2.80;;;1.60;;
25497;SDS011;13406;53.380;7.226;2022-10-16T06:36:04;3.93;;;1.40;;
25497;SDS011;13406;53.380;7.226;2022-10-16T06:38:31;3.27;;;2.00;;
25497;SDS011;13406;53.380;7.226;2022-10-16T06:40:57;6.00;;;1.80;;
25497;SDS011;13406;53.380;7.226;2022-10-16T06:43:24;5.53;;;1.90;;
25497;SDS011;13406;53.380;7.226;2022-10-16T06:45:51;4.60;;;1.90;;
25497;SDS011;13406;53.380;7.226;2022-10-16T06:48:17;5.37;;;1.73;;
25497;SDS011;13406;53.380;7.226;2022-10-16T06:50:43;2.93;;;1.70;;
25497;SDS011;13406;53.380;7.226;2022-10-16T06:53:08;3.93;;;2.17;;
25497;SDS011;13406;53.380;7.226;2022-10-16T06:55:33;3.10;;;1.70;;
25497;SDS011;13406;53.380;7.226;2022-10-16T06:57:59;6.77;;;1.97;;
25497;SDS011;13406;53.380;7.226;2022-10-16T07:00:24;5.10;;;2.10;;
25497;SDS011;13406;53.380;7.226;2022-10-16T07:02:50;5.33;;;1.70;;
25497;SDS011;13406;53.380;7.226;2022-10-16T07:05:15;3.73;;;1.90;;
25497;SDS011;13406;53.380;7.226;2022-10-16T07:07:41;6.33;;;2.17;;
25497;SDS011;13406;53.380;7.226;2022-10-16T07:10:07;7.00;;;2.47;;
25497;SDS011;13406;53.380;7.226;2022-10-16T07:12:32;3.53;;;2.20;;
25497;SDS011;13406;53.380;7.226;2022-10-16T07:14:58;1.97;;;1.73;;
25497;SDS011;13406;53.380;7.226;2022-10-16T07:17:23;5.57;;;2.20;;
25497;SDS011;13406;53.380;7.226;2022-10-16T07:19:49;3.70;;;1.87;;
25497;SDS011;13406;53.380;7.226;2022-10-16T07:22:14;4.60;;;2.03;;
25497;SDS011;13406;53.380;7.226;2022-10-16T07:24:39;4.10;;;1.70;;
25497;SDS011;13406;53.380;7.226;2022-10-16T07:27:05;5.40;;;2.20;;
25497;SDS011;13406;53.380;7.226;2022-10-16T07:29:30;4.67;;;1.90;;
25497;SDS011;13406;53.380;7.226;2022-10-16T07:31:56;7.33;;;2.73;;
25497;SDS011;13406;53.380;7.226;2022-10-16T07:34:21;2.10;;;1.57;;
25497;SDS011;13406;53.380;7.226;2022-10-16T07:36:48;4.90;;;2.07;;
25497;SDS011;13406;53.380;7.226;2022-10-16T07:39:14;2.93;;;1.83;;
25497;SDS011;13406;53.380;7.226;2022-10-16T07:41:40;6.83;;;2.00;;
25497;SDS011;13406;53.380;7.226;2022-10-16T07:44:05;5.70;;;2.47;;
25497;SDS011;13406;53.380;7.226;2022-10-16T07:46:31;9.50;;;2.20;;
25497;SDS011;13406;53.380;7.226;2022-10-16T07:48:58;4.73;;;1.90;;
25497;SDS011;13406;53.380;7.226;2022-10-16T07:51:24;4.03;;;2.17;;
25497;SDS011;13406;53.380;7.226;2022-10-16T07:53:53;5.10;;;2.30;;
25497;SDS011;13406;53.380;7.226;2022-10-16T07:56:18;2.57;;;1.80;;
25497;SDS011;13406;53.380;7.226;2022-10-16T07:58:44;8.03;;;1.87;;
25497;SDS011;13406;53.380;7.226;2022-10-16T08:01:11;8.43;;;2.00;;
25497;SDS011;13406;53.380;7.226;2022-10-16T08:03:38;2.60;;;1.50;;
25497;SDS011;13406;53.380;7.226;2022-10-16T08:06:06;2.87;;;2.07;;
25497;SDS011;13406;53.380;7.226;2022-10-16T08:08:32;4.63;;;1.90;;
25497;SDS011;13406;53.380;7.226;2022-10-16T08:10:58;3.93;;;1.70;;
25497;SDS011;13406;53.380;7.226;2022-10-16T08:13:23;3.37;;;1.70;;
25497;SDS011;13406;53.380;7.226;2022-10-16T08:15:49;6.53;;;2.10;;
25497;SDS011;13406;53.380;7.226;2022-10-16T08:18:14;2.47;;;1.60;;
25497;SDS011;13406;53.380;7.226;2022-10-16T08:20:41;3.13;;;1.60;;
25497;SDS011;13406;53.380;7.226;2022-10-16T08:23:08;3.03;;;1.43;;
25497;SDS011;13406;53.380;7.226;2022-10-16T08:25:36;3.83;;;1.57;;
25497;SDS011;13406;53.380;7.226;2022-10-16T08:28:05;7.33;;;1.80;;
25497;SDS011;13406;53.380;7.226;2022-10-16T08:30:31;2.80;;;1.20;;
25497;SDS011;13406;53.380;7.226;2022-10-16T08:32:57;5.10;;;1.63;;
25497;SDS011;13406;53.380;7.226;2022-10-16T08:35:23;3.63;;;1.83;;
25497;SDS011;13406;53.380;7.226;2022-10-16T08:37:49;2.83;;;1.70;;
25497;SDS011;13406;53.380;7.226;2022-10-16T08:40:19;4.07;;;1.90;;
25497;SDS011;13406;53.380;7.226;2022-10-16T08:43:31;5.93;;;2.00;;
25497;SDS011;13406;53.380;7.226;2022-10-16T08:51:04;5.43;;;1.70;;
25497;SDS011;13406;53.380;7.226;2022-10-16T08:53:50;4.23;;;1.50;;
25497;SDS011;13406;53.380;7.226;2022-10-16T08:56:19;5.30;;;1.90;;
25497;SDS011;13406;53.380;7.226;2022-10-16T08:58:45;6.30;;;2.00;;
25497;SDS011;13406;53.380;7.226;2022-10-16T09:01:13;7.13;;;1.97;;
25497;SDS011;13406;53.380;7.226;2022-10-16T09:03:50;3.43;;;1.50;;
25497;SDS011;13406;53.380;7.226;2022-10-16T09:06:26;3.43;;;1.40;;
25497;SDS011;13406;53.380;7.226;2022-10-16T09:17:44;2.73;;;1.40;;
25497;SDS011;13406;53.380;7.226;2022-10-16T09:20:29;5.30;;;1.67;;
25497;SDS011;13406;53.380;7.226;2022-10-16T09:25:43;7.93;;;1.67;;
25497;SDS011;13406;53.380;7.226;2022-10-16T09:28:10;6.00;;;1.50;;
25497;SDS011;13406;53.380;7.226;2022-10-16T09:30:36;5.47;;;2.27;;
25497;SDS011;13406;53.380;7.226;2022-10-16T09:33:02;5.77;;;1.63;;
25497;SDS011;13406;53.380;7.226;2022-10-16T09:35:40;5.87;;;1.60;;
25497;SDS011;13406;53.380;7.226;2022-10-16T09:38:21;6.43;;;1.20;;
25497;SDS011;13406;53.380;7.226;2022-10-16T09:40:50;3.83;;;1.70;;
25497;SDS011;13406;53.380;7.226;2022-10-16T09:43:21;4.00;;;1.37;;
25497;SDS011;13406;53.380;7.226;2022-10-16T09:46:00;5.80;;;1.67;;
25497;SDS011;13406;53.380;7.226;2022-10-16T09:48:37;3.57;;;1.60;;
25497;SDS011;13406;53.380;7.226;2022-10-16T09:51:16;4.10;;;1.40;;
25497;SDS011;13406;53.380;7.226;2022-10-16T09:53:45;3.30;;;1.20;;
25497;SDS011;13406;53.380;7.226;2022-10-16T09:56:20;3.63;;;1.20;;
25497;SDS011;13406;53.380;7.226;2022-10-16T09:58:51;10.20;;;1.60;;
25497;SDS011;13406;53.380;7.226;2022-10-16T10:01:18;6.13;;;1.70;;
25497;SDS011;13406;53.380;7.226;2022-10-16T10:04:02;4.63;;;1.40;;
25497;SDS011;13406;53.380;7.226;2022-10-16T10:06:29;7.07;;;1.43;;
25497;SDS011;13406;53.380;7.226;2022-10-16T10:19:38;6.47;;;1.50;;
25497;SDS011;13406;53.380;7.226;2022-10-16T10:22:27;5.37;;;1.60;;
25497;SDS011;13406;53.380;7.226;2022-10-16T10:35:56;8.57;;;1.97;;
25497;SDS011;13406;53.380;7.226;2022-10-16T10:41:25;7.07;;;1.53;;
25497;SDS011;13406;53.380;7.226;2022-10-16T10:44:20;14.00;;;2.60;;
25497;SDS011;13406;53.380;7.226;2022-10-16T10:47:00;4.10;;;1.63;;
25497;SDS011;13406;53.380;7.226;2022-10-16T10:52:13;8.23;;;2.53;;
25497;SDS011;13406;53.380;7.226;2022-10-16T10:58:15;8.77;;;2.30;;
25497;SDS011;13406;53.380;7.226;2022-10-16T11:03:51;7.93;;;2.83;;
25497;SDS011;13406;53.380;7.226;2022-10-16T11:06:33;8.93;;;1.93;;
25497;SDS011;13406;53.380;7.226;2022-10-16T11:09:15;7.73;;;2.03;;
25497;SDS011;13406;53.380;7.226;2022-10-16T11:11:49;15.43;;;3.50;;
25497;SDS011;13406;53.380;7.226;2022-10-16T11:14:30;9.40;;;2.27;;
25497;SDS011;13406;53.380;7.226;2022-10-16T11:17:11;8.03;;;2.30;;
25497;SDS011;13406;53.380;7.226;2022-10-16T11:19:53;6.57;;;2.23;;
25497;SDS011;13406;53.380;7.226;2022-10-16T11:22:36;10.63;;;3.10;;
25497;SDS011;13406;53.380;7.226;2022-10-16T11:25:12;10.20;;;2.10;;
25497;SDS011;13406;53.380;7.226;2022-10-16T11:30:16;7.93;;;2.03;;
25497;SDS011;13406;53.380;7.226;2022-10-16T11:38:28;7.23;;;2.30;;
25497;SDS011;13406;53.380;7.226;2022-10-16T11:41:42;8.10;;;2.30;;
25497;SDS011;13406;53.380;7.226;2022-10-16T11:46:57;11.07;;;2.27;;
25497;SDS011;13406;53.380;7.226;2022-10-16T11:49:26;9.40;;;2.77;;
25497;SDS011;13406;53.380;7.226;2022-10-16T11:57:16;8.67;;;1.73;;
25497;SDS011;13406;53.380;7.226;2022-10-16T11:59:46;7.53;;;1.90;;
25497;SDS011;13406;53.380;7.226;2022-10-16T12:05:06;11.33;;;3.03;;
25497;SDS011;13406;53.380;7.226;2022-10-16T12:07:39;6.33;;;1.63;;
25497;SDS011;13406;53.380;7.226;2022-10-16T12:10:20;11.90;;;2.50;;
25497;SDS011;13406;53.380;7.226;2022-10-16T12:12:48;6.97;;;1.90;;
25497;SDS011;13406;53.380;7.226;2022-10-16T12:17:48;7.53;;;1.90;;
25497;SDS011;13406;53.380;7.226;2022-10-16T12:22:53;6.27;;;1.93;;
25497;SDS011;13406;53.380;7.226;2022-10-16T12:25:22;5.83;;;1.80;;
25497;SDS011;13406;53.380;7.226;2022-10-16T12:30:42;4.87;;;1.70;;
25497;SDS011;13406;53.380;7.226;2022-10-16T12:33:19;8.20;;;1.73;;
25497;SDS011;13406;53.380;7.226;2022-10-16T12:35:50;8.17;;;2.00;;
25497;SDS011;13406;53.380;7.226;2022-10-16T12:40:42;6.13;;;2.07;;
25497;SDS011;13406;53.380;7.226;2022-10-16T12:43:24;7.33;;;2.07;;
25497;SDS011;13406;53.380;7.226;2022-10-16T12:48:31;6.20;;;1.90;;
25497;SDS011;13406;53.380;7.226;2022-10-16T12:50:57;4.60;;;1.93;;
25497;SDS011;13406;53.380;7.226;2022-10-16T12:53:26;6.57;;;2.10;;
25497;SDS011;13406;53.380;7.226;2022-10-16T12:55:54;5.53;;;1.83;;
25497;SDS011;13406;53.380;7.226;2022-10-16T12:58:41;6.33;;;2.23;;
25497;SDS011;13406;53.380;7.226;2022-10-16T13:01:29;5.80;;;1.67;;
25497;SDS011;13406;53.380;7.226;2022-10-16T13:04:13;7.03;;;2.33;;
25497;SDS011;13406;53.380;7.226;2022-10-16T13:20:34;8.10;;;1.73;;
25497;SDS011;13406;53.380;7.226;2022-10-16T13:23:16;5.10;;;1.83;;
25497;SDS011;13406;53.380;7.226;2022-10-16T13:25:56;5.00;;;1.90;;
25497;SDS011;13406;53.380;7.226;2022-10-16T13:28:34;6.60;;;1.80;;
25497;SDS011;13406;53.380;7.226;2022-10-16T13:31:03;4.80;;;1.87;;
25497;SDS011;13406;53.380;7.226;2022-10-16T13:36:18;7.63;;;2.07;;
25497;SDS011;13406;53.380;7.226;2022-10-16T13:38:48;3.37;;;1.53;;
25497;SDS011;13406;53.380;7.226;2022-10-16T13:41:17;5.30;;;1.90;;
25497;SDS011;13406;53.380;7.226;2022-10-16T13:43:47;10.47;;;1.70;;
25497;SDS011;13406;53.380;7.226;2022-10-16T13:46:17;3.70;;;1.57;;
25497;SDS011;13406;53.380;7.226;2022-10-16T13:49:05;7.70;;;1.77;;
25497;SDS011;13406;53.380;7.226;2022-10-16T13:51:40;7.17;;;2.00;;
25497;SDS011;13406;53.380;7.226;2022-10-16T13:54:07;5.53;;;2.10;;
25497;SDS011;13406;53.380;7.226;2022-10-16T13:56:36;6.83;;;1.90;;
25497;SDS011;13406;53.380;7.226;2022-10-16T13:59:05;7.23;;;2.00;;
25497;SDS011;13406;53.380;7.226;2022-10-16T14:01:50;7.10;;;2.07;;
25497;SDS011;13406;53.380;7.226;2022-10-16T14:04:19;9.90;;;2.40;;
25497;SDS011;13406;53.380;7.226;2022-10-16T14:06:45;4.87;;;1.67;;
25497;SDS011;13406;53.380;7.226;2022-10-16T14:09:18;7.60;;;2.30;;
25497;SDS011;13406;53.380;7.226;2022-10-16T14:11:50;6.67;;;1.67;;
25497;SDS011;13406;53.380;7.226;2022-10-16T14:14:18;8.13;;;2.50;;
25497;SDS011;13406;53.380;7.226;2022-10-16T14:16:44;6.10;;;1.83;;
25497;SDS011;13406;53.380;7.226;2022-10-16T14:19:23;6.67;;;1.90;;
25497;SDS011;13406;53.380;7.226;2022-10-16T14:21:52;4.37;;;1.63;;
25497;SDS011;13406;53.380;7.226;2022-10-16T14:24:25;3.73;;;1.60;;
25497;SDS011;13406;53.380;7.226;2022-10-16T14:27:00;4.63;;;1.80;;
25497;SDS011;13406;53.380;7.226;2022-10-16T14:29:27;6.57;;;1.53;;
25497;SDS011;13406;53.380;7.226;2022-10-16T14:32:00;4.40;;;1.60;;
25497;SDS011;13406;53.380;7.226;2022-10-16T14:34:28;4.00;;;1.80;;
25497;SDS011;13406;53.380;7.226;2022-10-16T14:37:01;3.80;;;1.40;;
25497;SDS011;13406;53.380;7.226;2022-10-16T14:39:34;5.60;;;1.57;;
25497;SDS011;13406;53.380;7.226;2022-10-16T14:42:00;4.23;;;1.23;;
25497;SDS011;13406;53.380;7.226;2022-10-16T14:44:31;4.87;;;1.43;;
25497;SDS011;13406;53.380;7.226;2022-10-16T14:46:58;4.10;;;1.27;;
25497;SDS011;13406;53.380;7.226;2022-10-16T14:49:34;5.20;;;1.40;;
25497;SDS011;13406;53.380;7.226;2022-10-16T14:51:59;5.17;;;2.03;;
25497;SDS011;13406;53.380;7.226;2022-10-16T14:54:26;5.80;;;1.90;;
25497;SDS011;13406;53.380;7.226;2022-10-16T14:56:53;10.00;;;2.03;;
25497;SDS011;13406;53.380;7.226;2022-10-16T14:59:37;6.60;;;2.10;;
25497;SDS011;13406;53.380;7.226;2022-10-16T15:02:13;6.03;;;1.90;;
25497;SDS011;13406;53.380;7.226;2022-10-16T15:04:44;4.70;;;1.77;;
25497;SDS011;13406;53.380;7.226;2022-10-16T15:07:09;9.03;;;2.13;;
25497;SDS011;13406;53.380;7.226;2022-10-16T15:09:34;5.20;;;1.87;;
25497;SDS011;13406;53.380;7.226;2022-10-16T15:12:00;7.93;;;2.33;;
25497;SDS011;13406;53.380;7.226;2022-10-16T15:14:25;8.90;;;2.30;;
25497;SDS011;13406;53.380;7.226;2022-10-16T15:16:51;11.17;;;2.70;;
25497;SDS011;13406;53.380;7.226;2022-10-16T15:19:16;8.30;;;2.47;;
25497;SDS011;13406;53.380;7.226;2022-10-16T15:21:41;7.07;;;2.20;;
25497;SDS011;13406;53.380;7.226;2022-10-16T15:24:09;10.03;;;2.70;;
25497;SDS011;13406;53.380;7.226;2022-10-16T15:26:37;8.33;;;2.73;;
25497;SDS011;13406;53.380;7.226;2022-10-16T15:29:03;8.50;;;2.23;;
25497;SDS011;13406;53.380;7.226;2022-10-16T15:31:29;8.60;;;2.57;;
25497;SDS011;13406;53.380;7.226;2022-10-16T15:33:54;7.60;;;2.07;;
25497;SDS011;13406;53.380;7.226;2022-10-16T15:36:29;6.03;;;2.10;;
25497;SDS011;13406;53.380;7.226;2022-10-16T15:38:59;7.50;;;1.90;;
25497;SDS011;13406;53.380;7.226;2022-10-16T15:41:24;6.53;;;2.20;;
25497;SDS011;13406;53.380;7.226;2022-10-16T15:43:50;9.90;;;2.27;;
25497;SDS011;13406;53.380;7.226;2022-10-16T15:46:17;8.20;;;2.07;;
25497;SDS011;13406;53.380;7.226;2022-10-16T15:48:45;6.17;;;2.03;;
25497;SDS011;13406;53.380;7.226;2022-10-16T15:51:10;10.23;;;2.63;;
25497;SDS011;13406;53.380;7.226;2022-10-16T15:53:36;5.57;;;2.17;;
25497;SDS011;13406;53.380;7.226;2022-10-16T15:56:02;8.57;;;2.53;;
25497;SDS011;13406;53.380;7.226;2022-10-16T15:58:31;6.70;;;2.47;;
25497;SDS011;13406;53.380;7.226;2022-10-16T16:00:57;4.80;;;2.33;;
25497;SDS011;13406;53.380;7.226;2022-10-16T16:03:25;6.30;;;2.93;;
25497;SDS011;13406;53.380;7.226;2022-10-16T16:05:51;6.47;;;2.73;;
25497;SDS011;13406;53.380;7.226;2022-10-16T16:08:17;12.27;;;4.40;;
25497;SDS011;13406;53.380;7.226;2022-10-16T16:10:42;11.77;;;4.43;;
25497;SDS011;13406;53.380;7.226;2022-10-16T16:13:08;11.07;;;5.13;;
25497;SDS011;13406;53.380;7.226;2022-10-16T16:15:33;12.43;;;4.80;;
25497;SDS011;13406;53.380;7.226;2022-10-16T16:17:59;11.23;;;5.13;;
25497;SDS011;13406;53.380;7.226;2022-10-16T16:20:26;8.17;;;3.93;;
25497;SDS011;13406;53.380;7.226;2022-10-16T16:22:52;6.80;;;2.60;;
25497;SDS011;13406;53.380;7.226;2022-10-16T16:25:17;6.13;;;3.10;;
25497;SDS011;13406;53.380;7.226;2022-10-16T16:27:43;8.47;;;2.70;;
25497;SDS011;13406;53.380;7.226;2022-10-16T16:30:10;8.37;;;2.47;;
25497;SDS011;13406;53.380;7.226;2022-10-16T16:32:36;8.23;;;2.70;;
25497;SDS011;13406;53.380;7.226;2022-10-16T16:35:02;8.23;;;2.50;;
25497;SDS011;13406;53.380;7.226;2022-10-16T16:37:28;5.77;;;1.90;;
25497;SDS011;13406;53.380;7.226;2022-10-16T16:39:54;5.77;;;2.20;;
25497;SDS011;13406;53.380;7.226;2022-10-16T16:42:20;5.63;;;2.00;;
25497;SDS011;13406;53.380;7.226;2022-10-16T16:44:47;8.63;;;2.93;;
25497;SDS011;13406;53.380;7.226;2022-10-16T16:47:12;6.10;;;2.43;;
25497;SDS011;13406;53.380;7.226;2022-10-16T16:49:38;5.40;;;2.10;;
25497;SDS011;13406;53.380;7.226;2022-10-16T16:52:05;6.60;;;2.67;;
25497;SDS011;13406;53.380;7.226;2022-10-16T16:54:30;7.83;;;2.90;;
25497;SDS011;13406;53.380;7.226;2022-10-16T16:56:56;5.73;;;2.80;;